createdAt,value
2017-05-15T00:00:53.008Z,1005.2
2017-05-15T00:02:03.367Z,1005.16
2017-05-15T00:03:13.408Z,1005.18
2017-05-15T00:04:23.873Z,1005.19
2017-05-15T00:05:34.291Z,1005.11
2017-05-15T00:06:44.015Z,1005.15
2017-05-15T00:07:54.376Z,1005.12
2017-05-15T00:09:04.414Z,1005.17
2017-05-15T00:10:14.548Z,1005.12
2017-05-15T00:11:24.890Z,1005.12
2017-05-15T00:12:35.245Z,1005.11
2017-05-15T00:13:45.590Z,1005.1
2017-05-15T00:14:55.958Z,1005.1
2017-05-15T00:16:06.419Z,1005.09
2017-05-15T00:17:16.789Z,1005.13
2017-05-15T00:18:26.834Z,1005.11
2017-05-15T00:19:37.179Z,1005.1
2017-05-15T00:20:47.528Z,1005.13
2017-05-15T00:21:57.682Z,1005.13
2017-05-15T00:23:07.946Z,1005.13
2017-05-15T00:24:18.296Z,1005.08
2017-05-15T00:25:28.647Z,1005.07
2017-05-15T00:26:38.990Z,1005
2017-05-15T00:27:49.442Z,1005.07
2017-05-15T00:28:59.778Z,1005.05
2017-05-15T00:30:10.124Z,1005.09
2017-05-15T00:31:20.466Z,1005.1
2017-05-15T00:32:30.895Z,1005.12
2017-05-15T00:33:41.046Z,1005.09
2017-05-15T00:34:51.097Z,1005.14
2017-05-15T00:36:01.130Z,1005.16
2017-05-15T00:37:11.492Z,1005.12
2017-05-15T00:38:21.844Z,1005.08
2017-05-15T00:39:32.313Z,1005.13
2017-05-15T00:40:42.678Z,1005.16
2017-05-15T00:41:52.731Z,1005.12
2017-05-15T00:43:03.130Z,1005.14
2017-05-15T00:44:13.504Z,1005.14
2017-05-15T00:45:23.656Z,1005.18
2017-05-15T00:46:34.010Z,1005.15
2017-05-15T00:47:44.047Z,1005.16
2017-05-15T00:48:54.413Z,1005.16
2017-05-15T00:50:04.450Z,1005.14
2017-05-15T00:51:14.906Z,1005.17
2017-05-15T00:52:24.628Z,1005.23
2017-05-15T00:53:34.976Z,1005.26
2017-05-15T00:54:45.340Z,1005.27
2017-05-15T00:55:55.710Z,1005.3
2017-05-15T00:57:06.188Z,1005.28
2017-05-15T00:58:16.523Z,1005.36
2017-05-15T00:59:26.584Z,1005.35
2017-05-15T01:00:36.941Z,1005.3
2017-05-15T01:01:47.284Z,1005.3
2017-05-15T01:02:57.452Z,1005.35
2017-05-15T01:04:07.810Z,1005.32
2017-05-15T01:05:18.164Z,1005.35
2017-05-15T01:06:28.518Z,1005.32
2017-05-15T01:07:38.876Z,1005.32
2017-05-15T01:08:49.075Z,1005.25
2017-05-15T01:09:59.419Z,1005.32
2017-05-15T01:11:09.468Z,1005.3
2017-05-15T01:12:19.824Z,1005.34
2017-05-15T01:13:29.559Z,1005.32
2017-05-15T01:14:39.768Z,1005.29
2017-05-15T01:15:49.803Z,1005.34
2017-05-15T01:17:00.174Z,1005.4
2017-05-15T01:18:10.208Z,1005.39
2017-05-15T01:19:20.561Z,1005.41
2017-05-15T01:20:31.028Z,1005.42
2017-05-15T01:21:41.373Z,1005.42
2017-05-15T01:22:51.416Z,1005.47
2017-05-15T01:24:01.456Z,1005.44
2017-05-15T01:25:10.862Z,1005.45
2017-05-15T01:26:21.372Z,1005.45
2017-05-15T01:27:31.741Z,1005.44
2017-05-15T01:28:42.097Z,1005.44
2017-05-15T01:29:52.129Z,1005.46
2017-05-15T01:31:02.481Z,1005.4
2017-05-15T01:32:12.970Z,1005.39
2017-05-15T01:33:23.340Z,1005.47
2017-05-15T01:34:33.396Z,1005.46
2017-05-15T01:35:43.744Z,1005.5
2017-05-15T01:36:54.100Z,1005.5
2017-05-15T01:38:04.227Z,1005.51
2017-05-15T01:39:14.279Z,1005.55
2017-05-15T01:40:24.631Z,1005.61
2017-05-15T01:41:34.043Z,1005.61
2017-05-15T01:42:44.089Z,1005.64
2017-05-15T01:43:54.287Z,1005.64
2017-05-15T01:45:04.341Z,1005.62
2017-05-15T01:46:14.747Z,1005.61
2017-05-15T01:47:25.103Z,1005.57
2017-05-15T01:48:34.823Z,1005.61
2017-05-15T01:49:45.370Z,1005.63
2017-05-15T01:50:55.718Z,1005.62
2017-05-15T01:52:06.084Z,1005.62
2017-05-15T01:53:16.452Z,1005.61
2017-05-15T01:54:26.817Z,1005.57
2017-05-15T01:55:37.268Z,1005.55
2017-05-15T01:56:47.611Z,1005.59
2017-05-15T01:57:57.357Z,1005.57
2017-05-15T01:59:07.390Z,1005.57
2017-05-15T02:00:17.744Z,1005.6
2017-05-15T02:01:27.879Z,1005.63
2017-05-15T02:02:38.233Z,1005.61
2017-05-15T02:03:48.594Z,1005.61
2017-05-15T02:04:58.948Z,1005.68
2017-05-15T02:06:09.314Z,1005.66
2017-05-15T02:07:19.775Z,1005.68
2017-05-15T02:08:29.827Z,1005.7
2017-05-15T02:09:40.175Z,1005.71
2017-05-15T02:10:50.528Z,1005.72
2017-05-15T02:12:00.560Z,1005.68
2017-05-15T02:13:10.402Z,1005.77
2017-05-15T02:14:20.131Z,1005.79
2017-05-15T02:15:30.485Z,1005.8
2017-05-15T02:16:40.520Z,1005.78
2017-05-15T02:17:50.238Z,1005.79
2017-05-15T02:19:00.700Z,1005.78
2017-05-15T02:20:10.429Z,1005.76
2017-05-15T02:21:20.771Z,1005.83
2017-05-15T02:22:30.813Z,1005.78
2017-05-15T02:23:40.871Z,1005.84
2017-05-15T02:24:51.032Z,1005.82
2017-05-15T02:26:01.380Z,1005.85
2017-05-15T02:27:11.416Z,1005.86
2017-05-15T02:28:21.474Z,1005.88
2017-05-15T02:29:31.840Z,1005.9
2017-05-15T02:30:42.292Z,1005.88
2017-05-15T02:31:52.648Z,1005.91
2017-05-15T02:33:02.685Z,1005.97
2017-05-15T02:34:13.050Z,1005.96
2017-05-15T02:35:23.100Z,1005.94
2017-05-15T02:36:33.240Z,1005.93
2017-05-15T02:37:43.273Z,1005.89
2017-05-15T02:38:53.319Z,1005.97
2017-05-15T02:40:03.668Z,1005.97
2017-05-15T02:41:13.701Z,1005.98
2017-05-15T02:42:24.165Z,1005.92
2017-05-15T02:43:34.252Z,1005.94
2017-05-15T02:44:44.589Z,1005.98
2017-05-15T02:45:54.634Z,1005.96
2017-05-15T02:47:04.982Z,1005.94
2017-05-15T02:48:15.457Z,1005.99
2017-05-15T02:49:25.506Z,1006.01
2017-05-15T02:50:35.850Z,1005.93
2017-05-15T02:51:46.267Z,1005.98
2017-05-15T02:52:56.605Z,1005.98
2017-05-15T02:54:06.480Z,1005.97
2017-05-15T02:55:16.838Z,1005.99
2017-05-15T02:56:26.564Z,1006
2017-05-15T02:57:36.913Z,1006
2017-05-15T02:58:46.967Z,1005.99
2017-05-15T02:59:57.425Z,1006
2017-05-15T03:01:07.461Z,1006.03
2017-05-15T03:33:12.296Z,1006.21
2017-05-15T03:34:22.651Z,1006.23
2017-05-15T03:35:33.030Z,1006.2
2017-05-15T03:36:43.522Z,1006.19
2017-05-15T03:37:53.873Z,1006.21
2017-05-15T03:39:04.320Z,1006.23
2017-05-15T03:40:14.035Z,1006.24
2017-05-15T03:41:24.384Z,1006.23
2017-05-15T03:42:34.733Z,1006.29
2017-05-15T03:43:44.774Z,1006.29
2017-05-15T03:44:55.278Z,1006.31
2017-05-15T03:46:05.625Z,1006.28
2017-05-15T03:47:15.678Z,1006.31
2017-05-15T03:48:26.027Z,1006.3
2017-05-15T03:49:36.365Z,1006.3
2017-05-15T03:50:46.863Z,1006.35
2017-05-15T03:51:57.230Z,1006.31
2017-05-15T03:53:07.573Z,1006.32
2017-05-15T03:54:17.603Z,1006.35
2017-05-15T03:55:27.952Z,1006.41
2017-05-15T03:56:38.404Z,1006.35
2017-05-15T03:57:48.437Z,1006.38
2017-05-15T03:58:58.805Z,1006.35
2017-05-15T04:00:08.842Z,1006.41
2017-05-15T04:01:18.891Z,1006.41
2017-05-15T04:02:29.358Z,1006.45
2017-05-15T04:03:39.708Z,1006.43
2017-05-15T04:04:49.750Z,1006.47
2017-05-15T04:05:59.801Z,1006.45
2017-05-15T04:07:10.146Z,1006.49
2017-05-15T04:08:20.279Z,1006.46
2017-05-15T04:09:30.633Z,1006.47
2017-05-15T04:10:40.994Z,1006.43
2017-05-15T04:11:51.047Z,1006.53
2017-05-15T04:13:01.401Z,1006.53
2017-05-15T04:14:11.554Z,1006.5
2017-05-15T04:15:21.920Z,1006.5
2017-05-15T04:16:32.281Z,1006.5
2017-05-15T04:17:42.353Z,1006.57
2017-05-15T04:18:52.716Z,1006.59
2017-05-15T04:20:03.158Z,1006.65
2017-05-15T04:21:13.534Z,1006.64
2017-05-15T04:22:23.876Z,1006.67
2017-05-15T04:23:34.294Z,1006.61
2017-05-15T04:24:44.323Z,1006.67
2017-05-15T04:25:54.782Z,1006.73
2017-05-15T04:27:05.176Z,1006.72
2017-05-15T04:28:15.560Z,1006.7
2017-05-15T04:29:25.921Z,1006.72
2017-05-15T04:30:35.971Z,1006.76
2017-05-15T04:31:46.473Z,1006.71
2017-05-15T04:32:56.836Z,1006.77
2017-05-15T04:34:07.232Z,1006.75
2017-05-15T04:35:17.615Z,1006.84
2017-05-15T04:36:27.953Z,1006.81
2017-05-15T04:37:38.099Z,1006.82
2017-05-15T04:38:48.462Z,1006.81
2017-05-15T04:39:58.826Z,1006.86
2017-05-15T04:41:09.196Z,1006.91
2017-05-15T04:42:19.531Z,1006.88
2017-05-15T04:43:29.991Z,1006.91
2017-05-15T04:44:40.358Z,1006.93
2017-05-15T04:45:50.732Z,1006.95
2017-05-15T04:47:00.779Z,1006.97
2017-05-15T04:48:11.160Z,1006.97
2017-05-15T04:49:21.675Z,1006.96
2017-05-15T04:50:32.025Z,1007.01
2017-05-15T04:51:42.384Z,1007.03
2017-05-15T04:52:52.742Z,1007.04
2017-05-15T04:54:03.098Z,1007.04
2017-05-15T04:55:13.240Z,1007.05
2017-05-15T04:56:23.472Z,1007.09
2017-05-15T04:57:33.505Z,1007.11
2017-05-15T04:58:43.858Z,1007.13
2017-05-15T04:59:54.206Z,1007.15
2017-05-15T05:01:04.652Z,1007.14
2017-05-15T05:02:15.001Z,1007.17
2017-05-15T05:03:25.038Z,1007.2
2017-05-15T05:04:35.391Z,1007.24
2017-05-15T05:05:45.738Z,1007.24
2017-05-15T05:06:56.205Z,1007.23
2017-05-15T05:08:06.546Z,1007.23
2017-05-15T05:09:16.622Z,1007.24
2017-05-15T05:10:26.659Z,1007.22
2017-05-15T05:11:36.995Z,1007.27
2017-05-15T05:12:47.187Z,1007.26
2017-05-15T05:13:57.554Z,1007.29
2017-05-15T05:15:07.905Z,1007.29
2017-05-15T05:16:17.942Z,1007.26
2017-05-15T05:17:28.286Z,1007.29
2017-05-15T05:18:38.734Z,1007.32
2017-05-15T05:19:49.107Z,1007.31
2017-05-15T05:20:59.478Z,1007.3
2017-05-15T05:22:09.527Z,1007.27
2017-05-15T05:23:19.893Z,1007.34
2017-05-15T05:24:30.345Z,1007.36
2017-05-15T05:25:40.688Z,1007.39
2017-05-15T05:26:51.027Z,1007.36
2017-05-15T05:28:00.748Z,1007.42
2017-05-15T05:29:11.098Z,1007.39
2017-05-15T05:30:21.541Z,1007.42
2017-05-15T05:31:31.813Z,1007.42
2017-05-15T05:32:42.161Z,1007.4
2017-05-15T05:33:52.508Z,1007.44
2017-05-15T05:35:02.899Z,1007.46
2017-05-15T05:36:13.417Z,1007.44
2017-05-15T05:37:23.782Z,1007.42
2017-05-15T05:38:34.146Z,1007.44
2017-05-15T05:39:43.878Z,1007.46
2017-05-15T05:40:54.234Z,1007.48
2017-05-15T05:42:04.391Z,1007.47
2017-05-15T05:43:14.423Z,1007.52
2017-05-15T05:44:24.774Z,1007.52
2017-05-15T05:45:35.137Z,1007.56
2017-05-15T05:46:45.165Z,1007.54
2017-05-15T05:47:55.734Z,1007.58
2017-05-15T05:49:06.090Z,1007.57
2017-05-15T05:50:16.429Z,1007.56
2017-05-15T05:51:26.771Z,1007.58
2017-05-15T05:52:36.805Z,1007.56
2017-05-15T05:53:47.258Z,1007.56
2017-05-15T05:54:57.309Z,1007.57
2017-05-15T05:56:07.561Z,1007.63
2017-05-15T05:57:17.906Z,1007.62
2017-05-15T05:58:28.281Z,1007.63
2017-05-15T05:59:38.421Z,1007.69
2017-05-15T06:00:48.778Z,1007.64
2017-05-15T06:01:59.130Z,1007.61
2017-05-15T06:03:09.179Z,1007.63
2017-05-15T06:04:19.222Z,1007.62
2017-05-15T06:05:29.361Z,1007.65
2017-05-15T06:06:39.720Z,1007.65
2017-05-15T06:07:50.063Z,1007.71
2017-05-15T06:09:00.408Z,1007.73
2017-05-15T06:10:10.757Z,1007.69
2017-05-15T06:11:20.905Z,1007.67
2017-05-15T06:12:30.948Z,1007.72
2017-05-15T06:13:40.981Z,1007.72
2017-05-15T06:14:50.704Z,1007.76
2017-05-15T06:16:01.257Z,1007.75
2017-05-15T06:17:11.715Z,1007.79
2017-05-15T06:18:21.752Z,1007.8
2017-05-15T06:19:31.790Z,1007.8
2017-05-15T06:20:42.141Z,1007.83
2017-05-15T06:21:52.185Z,1007.81
2017-05-15T06:23:02.008Z,1007.88
2017-05-15T06:24:11.742Z,1007.87
2017-05-15T06:25:22.098Z,1007.84
2017-05-15T06:26:32.438Z,1007.89
2017-05-15T06:27:42.215Z,1007.89
2017-05-15T06:28:52.666Z,1007.87
2017-05-15T06:30:03.019Z,1007.88
2017-05-15T06:31:13.366Z,1007.89
2017-05-15T06:32:23.736Z,1007.99
2017-05-15T06:33:33.795Z,1007.96
2017-05-15T06:34:43.920Z,1007.94
2017-05-15T06:35:53.959Z,1007.94
2017-05-15T06:37:04.320Z,1008
2017-05-15T06:38:14.671Z,1007.94
2017-05-15T06:39:24.713Z,1007.97
2017-05-15T06:40:35.161Z,1007.97
2017-05-15T06:41:45.192Z,1007.97
2017-05-15T06:42:55.607Z,1007.99
2017-05-15T06:44:05.962Z,1008
2017-05-15T06:45:16.312Z,1008.03
2017-05-15T06:46:26.764Z,1008.02
2017-05-15T06:47:37.115Z,1008.02
2017-05-15T06:48:47.471Z,1008.03
2017-05-15T06:49:57.823Z,1008.01
2017-05-15T06:51:08.171Z,1008.1
2017-05-15T06:52:18.641Z,1008.12
2017-05-15T06:53:28.997Z,1008.04
2017-05-15T06:54:39.348Z,1008.05
2017-05-15T06:55:49.403Z,1008.11
2017-05-15T06:56:59.443Z,1008.09
2017-05-15T06:58:09.628Z,1008.09
2017-05-15T06:59:20.028Z,1008.08
2017-05-15T07:00:30.384Z,1008.1
2017-05-15T07:01:40.743Z,1008.02
2017-05-15T07:02:51.105Z,1008.06
2017-05-15T07:04:01.618Z,1008.05
2017-05-15T07:05:11.952Z,1008.07
2017-05-15T07:06:22.299Z,1008.12
2017-05-15T07:07:32.406Z,1008.12
2017-05-15T07:08:42.446Z,1008.11
2017-05-15T07:09:52.918Z,1008.14
2017-05-15T07:11:03.275Z,1008.17
2017-05-15T07:12:13.309Z,1008.16
2017-05-15T07:13:23.651Z,1008.17
2017-05-15T07:14:33.996Z,1008.13
2017-05-15T07:15:44.457Z,1008.19
2017-05-15T07:16:54.814Z,1008.27
2017-05-15T07:18:05.188Z,1008.28
2017-05-15T07:19:15.246Z,1008.24
2017-05-15T07:20:25.612Z,1008.27
2017-05-15T07:21:36.074Z,1008.25
2017-05-15T07:22:46.415Z,1008.26
2017-05-15T07:23:56.781Z,1008.3
2017-05-15T07:25:07.143Z,1008.35
2017-05-15T07:26:17.499Z,1008.33
2017-05-15T07:27:27.687Z,1008.33
2017-05-15T07:28:38.051Z,1008.36
2017-05-15T07:29:48.409Z,1008.34
2017-05-15T07:30:58.766Z,1008.37
2017-05-15T07:32:09.119Z,1008.38
2017-05-15T07:33:19.301Z,1008.39
2017-05-15T07:34:29.355Z,1008.36
2017-05-15T07:35:39.708Z,1008.37
2017-05-15T07:36:50.056Z,1008.37
2017-05-15T07:38:00.412Z,1008.42
2017-05-15T07:39:10.572Z,1008.4
2017-05-15T07:40:20.924Z,1008.43
2017-05-15T07:41:31.271Z,1008.42
2017-05-15T07:42:41.619Z,1008.44
2017-05-15T07:43:51.976Z,1008.44
2017-05-15T07:45:01.823Z,1008.49
2017-05-15T07:46:12.180Z,1008.51
2017-05-15T07:47:22.530Z,1008.47
2017-05-15T07:48:32.587Z,1008.51
2017-05-15T07:49:42.669Z,1008.52
2017-05-15T07:50:53.121Z,1008.52
2017-05-15T07:52:03.169Z,1008.51
2017-05-15T07:53:13.209Z,1008.52
2017-05-15T07:54:23.578Z,1008.55
2017-05-15T07:55:33.935Z,1008.52
2017-05-15T07:56:44.079Z,1008.55
2017-05-15T07:57:54.448Z,1008.53
2017-05-15T07:59:04.784Z,1008.54
2017-05-15T08:00:15.153Z,1008.52
2017-05-15T08:01:24.874Z,1008.52
2017-05-15T08:02:35.325Z,1008.55
2017-05-15T08:03:45.690Z,1008.51
2017-05-15T08:04:56.058Z,1008.49
2017-05-15T08:06:05.785Z,1008.5
2017-05-15T08:07:15.851Z,1008.51
2017-05-15T08:08:26.008Z,1008.53
2017-05-15T08:09:36.065Z,1008.56
2017-05-15T08:10:46.112Z,1008.5
2017-05-15T08:11:56.148Z,1008.53
2017-05-15T08:13:06.495Z,1008.55
2017-05-15T08:14:16.973Z,1008.62
2017-05-15T08:15:27.343Z,1008.6
2017-05-15T08:16:37.381Z,1008.57
2017-05-15T08:17:47.098Z,1008.62
2017-05-15T08:18:57.447Z,1008.6
2017-05-15T08:20:07.277Z,1008.61
2017-05-15T08:21:17.681Z,1008.66
2017-05-15T08:22:27.765Z,1008.65
2017-05-15T08:23:37.499Z,1008.69
2017-05-15T08:24:47.553Z,1008.58
2017-05-15T08:25:58.011Z,1008.62
2017-05-15T08:27:08.363Z,1008.62
2017-05-15T08:28:18.718Z,1008.64
2017-05-15T08:29:28.443Z,1008.68
2017-05-15T08:30:38.804Z,1008.68
2017-05-15T08:31:49.460Z,1008.68
2017-05-15T08:32:59.855Z,1008.64
2017-05-15T08:34:09.895Z,1008.67
2017-05-15T08:35:20.249Z,1008.72
2017-05-15T08:36:30.604Z,1008.7
2017-05-15T08:37:41.077Z,1008.72
2017-05-15T08:38:51.424Z,1008.72
2017-05-15T08:40:01.786Z,1008.75
2017-05-15T08:41:12.152Z,1008.7
2017-05-15T08:42:22.514Z,1008.74
2017-05-15T08:43:32.965Z,1008.72
2017-05-15T08:44:43.008Z,1008.77
2017-05-15T08:45:53.060Z,1008.78
2017-05-15T08:47:03.419Z,1008.75
2017-05-15T08:48:13.459Z,1008.68
2017-05-15T08:49:23.929Z,1008.75
2017-05-15T08:50:34.296Z,1008.71
2017-05-15T08:51:44.633Z,1008.77
2017-05-15T08:52:54.996Z,1008.81
2017-05-15T08:54:05.050Z,1008.77
2017-05-15T08:55:15.510Z,1008.72
2017-05-15T08:56:25.861Z,1008.82
2017-05-15T08:57:36.217Z,1008.78
2017-05-15T08:58:46.616Z,1008.8
2017-05-15T08:59:57.032Z,1008.8
2017-05-15T09:01:07.523Z,1008.8
2017-05-15T09:02:17.885Z,1008.83
2017-05-15T09:03:28.260Z,1008.78
2017-05-15T09:04:38.630Z,1008.79
2017-05-15T09:05:48.678Z,1008.74
2017-05-15T09:06:58.824Z,1008.74
2017-05-15T09:08:09.168Z,1008.74
2017-05-15T09:09:19.215Z,1008.76
2017-05-15T09:10:29.281Z,1008.76
2017-05-15T09:11:39.670Z,1008.75
2017-05-15T09:12:49.854Z,1008.78
2017-05-15T09:13:59.906Z,1008.87
2017-05-15T09:15:09.953Z,1008.84
2017-05-15T09:16:20.309Z,1008.77
2017-05-15T09:17:30.681Z,1008.79
2017-05-15T09:18:41.156Z,1008.8
2017-05-15T09:19:50.885Z,1008.78
2017-05-15T09:21:00.927Z,1008.79
2017-05-15T09:22:10.959Z,1008.81
2017-05-15T09:23:21.315Z,1008.83
2017-05-15T09:24:31.813Z,1008.8
2017-05-15T09:25:41.863Z,1008.8
2017-05-15T09:26:51.905Z,1008.84
2017-05-15T09:28:01.954Z,1008.79
2017-05-15T09:29:12.310Z,1008.82
2017-05-15T09:30:22.783Z,1008.77
2017-05-15T09:31:33.142Z,1008.78
2017-05-15T09:32:43.509Z,1008.75
2017-05-15T09:33:53.863Z,1008.74
2017-05-15T09:35:04.230Z,1008.75
2017-05-15T09:36:14.399Z,1008.71
2017-05-15T09:37:24.780Z,1008.66
2017-05-15T09:38:35.129Z,1008.75
2017-05-15T09:39:45.182Z,1008.72
2017-05-15T09:40:55.544Z,1008.76
2017-05-15T09:42:05.698Z,1008.74
2017-05-15T09:43:15.796Z,1008.82
2017-05-15T09:44:26.188Z,1008.81
2017-05-15T09:45:36.561Z,1008.71
2017-05-15T09:46:46.903Z,1008.71
2017-05-15T09:47:57.408Z,1008.83
2017-05-15T09:49:07.351Z,1008.83
2017-05-15T09:50:17.725Z,1008.79
2017-05-15T09:51:28.101Z,1008.74
2017-05-15T09:52:38.461Z,1008.74
2017-05-15T09:53:48.905Z,1008.75
2017-05-15T09:54:59.280Z,1008.76
2017-05-15T09:56:09.637Z,1008.83
2017-05-15T09:57:20.003Z,1008.79
2017-05-15T09:58:30.383Z,1008.79
2017-05-15T09:59:40.842Z,1008.78
2017-05-15T10:00:50.893Z,1008.73
2017-05-15T10:02:01.249Z,1008.73
2017-05-15T10:03:11.864Z,1008.75
2017-05-15T10:04:22.233Z,1008.77
2017-05-15T10:05:32.130Z,1008.77
2017-05-15T10:06:42.502Z,1008.7
2017-05-15T10:07:52.858Z,1008.72
2017-05-15T10:09:03.240Z,1008.73
2017-05-15T10:10:13.593Z,1008.74
2017-05-15T10:11:24.098Z,1008.78
2017-05-15T10:12:34.465Z,1008.7
2017-05-15T10:13:44.850Z,1008.77
2017-05-15T10:14:55.215Z,1008.75
2017-05-15T10:16:05.571Z,1008.75
2017-05-15T10:17:15.728Z,1008.79
2017-05-15T10:18:26.118Z,1008.82
2017-05-15T10:19:36.168Z,1008.77
2017-05-15T10:20:46.217Z,1008.78
2017-05-15T10:21:56.597Z,1008.77
2017-05-15T10:23:07.046Z,1008.78
2017-05-15T10:24:17.402Z,1008.78
2017-05-15T10:25:27.772Z,1008.76
2017-05-15T10:26:38.133Z,1008.79
2017-05-15T10:27:48.184Z,1008.74
2017-05-15T10:28:58.706Z,1008.74
2017-05-15T10:30:09.092Z,1008.76
2017-05-15T10:31:19.155Z,1008.73
2017-05-15T10:32:29.583Z,1008.69
2017-05-15T10:33:39.952Z,1008.71
2017-05-15T10:34:50.165Z,1008.68
2017-05-15T10:36:00.556Z,1008.71
2017-05-15T10:37:10.925Z,1008.7
2017-05-15T10:38:21.294Z,1008.6
2017-05-15T10:39:31.652Z,1008.53
2017-05-15T10:40:42.105Z,1008.53
2017-05-15T10:41:52.462Z,1008.58
2017-05-15T10:43:02.822Z,1008.52
2017-05-15T10:44:12.870Z,1008.59
2017-05-15T10:45:22.921Z,1008.63
2017-05-15T10:46:33.384Z,1008.6
2017-05-15T10:47:43.759Z,1008.59
2017-05-15T10:48:53.825Z,1008.61
2017-05-15T10:50:03.567Z,1008.74
2017-05-15T10:51:13.942Z,1008.61
2017-05-15T10:52:24.414Z,1008.58
2017-05-15T10:53:34.774Z,1008.57
2017-05-15T10:54:45.131Z,1008.55
2017-05-15T10:55:55.509Z,1008.62
2017-05-15T10:57:05.880Z,1008.59
2017-05-15T10:58:16.366Z,1008.57
2017-05-15T10:59:26.426Z,1008.55
2017-05-15T11:00:36.474Z,1008.66
2017-05-15T11:01:46.525Z,1008.6
2017-05-15T11:02:56.891Z,1008.58
2017-05-15T11:04:07.354Z,1008.62
2017-05-15T11:05:17.717Z,1008.57
2017-05-15T11:06:28.066Z,1008.53
2017-05-15T11:07:38.430Z,1008.51
2017-05-15T11:08:48.167Z,1008.57
2017-05-15T11:09:58.642Z,1008.55
2017-05-15T11:11:09.000Z,1008.61
2017-05-15T11:12:19.361Z,1008.59
2017-05-15T11:13:29.725Z,1008.59
2017-05-15T11:14:39.775Z,1008.59
2017-05-15T11:15:49.931Z,1008.59
2017-05-15T11:17:00.290Z,1008.63
2017-05-15T11:18:10.337Z,1008.56
2017-05-15T11:19:20.703Z,1008.62
2017-05-15T11:20:30.762Z,1008.59
2017-05-15T11:21:41.519Z,1008.54
2017-05-15T11:22:51.886Z,1008.54
2017-05-15T11:24:02.289Z,1008.54
2017-05-15T11:25:12.356Z,1008.54
2017-05-15T11:26:22.383Z,1008.54
2017-05-15T11:27:32.584Z,1008.5
2017-05-15T11:28:42.956Z,1008.51
2017-05-15T11:29:53.329Z,1008.48
2017-05-15T11:31:03.385Z,1008.5
2017-05-15T11:32:13.117Z,1008.5
2017-05-15T11:33:23.573Z,1008.47
2017-05-15T11:34:33.938Z,1008.45
2017-05-15T11:35:44.308Z,1008.49
2017-05-15T11:36:54.373Z,1008.49
2017-05-15T11:38:04.751Z,1008.47
2017-05-15T11:39:14.916Z,1008.48
2017-05-15T11:40:25.263Z,1008.49
2017-05-15T11:41:35.317Z,1008.49
2017-05-15T11:42:45.682Z,1008.51
2017-05-15T11:43:55.411Z,1008.46
2017-05-15T11:45:05.891Z,1008.56
2017-05-15T11:46:16.268Z,1008.53
2017-05-15T11:47:26.697Z,1008.56
2017-05-15T11:48:37.051Z,1008.57
2017-05-15T11:49:47.468Z,1008.56
2017-05-15T11:50:57.944Z,1008.54
2017-05-15T11:52:08.323Z,1008.49
2017-05-15T11:53:18.687Z,1008.46
2017-05-15T11:54:29.052Z,1008.47
2017-05-15T11:55:39.440Z,1008.49
2017-05-15T11:56:49.588Z,1008.5
2017-05-15T11:57:59.630Z,1008.54
2017-05-15T11:59:09.682Z,1008.62
2017-05-15T12:00:20.055Z,1008.61
2017-05-15T12:01:30.098Z,1008.58
2017-05-15T12:02:40.564Z,1008.57
2017-05-15T12:03:50.300Z,1008.56
2017-05-15T12:05:00.737Z,1008.54
2017-05-15T12:06:11.105Z,1008.55
2017-05-15T12:07:21.468Z,1008.54
2017-05-15T12:08:31.928Z,1008.53
2017-05-15T12:09:42.298Z,1008.56
2017-05-15T12:10:52.669Z,1008.57
2017-05-15T12:12:02.716Z,1008.46
2017-05-15T12:13:12.784Z,1008.49
2017-05-15T12:14:23.257Z,1008.48
2017-05-15T12:15:33.635Z,1008.39
2017-05-15T12:16:44.012Z,1008.46
2017-05-15T12:17:54.054Z,1008.46
2017-05-15T12:19:04.411Z,1008.44
2017-05-15T12:20:14.558Z,1008.49
2017-05-15T12:21:24.930Z,1008.48
2017-05-15T12:22:34.969Z,1008.45
2017-05-15T12:23:45.340Z,1008.43
2017-05-15T12:24:55.720Z,1008.45
2017-05-15T12:26:05.873Z,1008.49
2017-05-15T12:27:15.929Z,1008.44
2017-05-15T12:28:25.677Z,1008.43
2017-05-15T12:29:35.730Z,1008.44
2017-05-15T12:30:46.092Z,1008.43
2017-05-15T12:31:56.245Z,1008.41
2017-05-15T12:33:06.594Z,1008.42
2017-05-15T12:34:16.956Z,1008.41
2017-05-15T12:35:27.010Z,1008.43
2017-05-15T12:36:37.364Z,1008.41
2017-05-15T12:37:47.891Z,1008.44
2017-05-15T12:38:58.257Z,1008.45
2017-05-15T12:40:08.635Z,1008.4
2017-05-15T12:41:18.985Z,1008.43
2017-05-15T12:42:28.728Z,1008.41
2017-05-15T12:43:39.186Z,1008.4
2017-05-15T12:44:49.553Z,1008.4
2017-05-15T12:45:59.912Z,1008.36
2017-05-15T12:47:10.326Z,1008.43
2017-05-15T12:48:20.436Z,1008.38
2017-05-15T12:49:30.889Z,1008.35
2017-05-15T12:50:40.934Z,1008.36
2017-05-15T12:51:51.302Z,1008.36
2017-05-15T12:53:01.673Z,1008.3
2017-05-15T12:54:12.026Z,1008.3
2017-05-15T12:55:22.539Z,1008.32
2017-05-15T12:56:32.909Z,1008.31
2017-05-15T12:57:43.271Z,1008.27
2017-05-15T12:58:53.636Z,1008.27
2017-05-15T13:00:04.007Z,1008.24
2017-05-15T13:01:14.482Z,1008.29
2017-05-15T13:02:24.846Z,1008.22
2017-05-15T13:03:34.581Z,1008.26
2017-05-15T13:04:44.955Z,1008.23
2017-05-15T13:05:55.331Z,1008.18
2017-05-15T13:07:05.825Z,1008.17
2017-05-15T13:08:16.192Z,1008.16
2017-05-15T13:09:26.575Z,1008.13
2017-05-15T13:10:36.939Z,1008.17
2017-05-15T13:11:47.308Z,1008.13
2017-05-15T13:12:57.773Z,1008.12
2017-05-15T13:14:08.134Z,1008.11
2017-05-15T13:15:18.508Z,1008.01
2017-05-15T13:16:28.893Z,1008.07
2017-05-15T13:17:38.946Z,1008.1
2017-05-15T13:18:49.431Z,1008.01
2017-05-15T13:19:59.796Z,1008.03
2017-05-15T13:21:10.156Z,1008.05
2017-05-15T13:22:20.210Z,1008.07
2017-05-15T13:23:30.581Z,1008.05
2017-05-15T13:24:41.095Z,1008.05
2017-05-15T13:25:50.854Z,1008.08
2017-05-15T13:27:01.240Z,1008.06
2017-05-15T13:28:11.617Z,1008.05
2017-05-15T13:29:21.979Z,1008.06
2017-05-15T13:30:31.837Z,1008.06
2017-05-15T13:31:42.203Z,1008.07
2017-05-15T13:32:52.564Z,1008.06
2017-05-15T13:34:02.629Z,1008.03
2017-05-15T13:35:12.983Z,1007.99
2017-05-15T13:36:23.440Z,1008.01
2017-05-15T13:37:33.788Z,1008.01
2017-05-15T13:38:44.163Z,1008.1
2017-05-15T13:39:54.516Z,1008.03
2017-05-15T13:41:04.576Z,1008
2017-05-15T13:42:15.033Z,1008.01
2017-05-15T13:43:25.411Z,1008.03
2017-05-15T13:44:35.778Z,1008.08
2017-05-15T13:45:46.153Z,1008
2017-05-15T13:46:56.241Z,1008.04
2017-05-15T13:48:06.737Z,1008.04
2017-05-15T13:49:16.799Z,1007.97
2017-05-15T13:50:26.869Z,1007.98
2017-05-15T13:51:37.237Z,1007.98
2017-05-15T13:52:47.609Z,1007.96
2017-05-15T13:53:58.276Z,1007.97
2017-05-15T13:55:08.620Z,1007.94
2017-05-15T13:56:18.997Z,1007.92
2017-05-15T13:57:29.370Z,1007.93
2017-05-15T13:58:39.728Z,1007.88
2017-05-15T13:59:50.220Z,1007.86
2017-05-15T14:01:00.597Z,1007.86
2017-05-15T14:02:10.974Z,1007.95
2017-05-15T14:03:21.335Z,1007.99
2017-05-15T14:04:31.721Z,1008.08
2017-05-15T14:05:42.172Z,1008.09
2017-05-15T14:06:51.913Z,1008.17
2017-05-15T14:08:02.344Z,1008.13
2017-05-15T14:09:12.708Z,1008.04
2017-05-15T14:10:22.495Z,1008.03
2017-05-15T14:11:32.973Z,1008.04
2017-05-15T14:12:43.014Z,1008.07
2017-05-15T14:13:53.378Z,1008.07
2017-05-15T14:15:03.728Z,1008.13
2017-05-15T14:16:14.103Z,1008.18
2017-05-15T14:17:24.576Z,1008.21
2017-05-15T14:18:34.309Z,1008.3
2017-05-15T14:19:44.672Z,1008.36
2017-05-15T14:20:54.729Z,1008.44
2017-05-15T14:22:04.768Z,1008.51
2017-05-15T14:23:15.241Z,1008.43
2017-05-15T14:24:25.613Z,1008.46
2017-05-15T14:25:35.970Z,1008.5
2017-05-15T14:26:46.349Z,1008.44
2017-05-15T14:27:56.744Z,1008.46
2017-05-15T14:29:07.201Z,1008.35
2017-05-15T14:30:17.232Z,1008.29
2017-05-15T14:31:27.285Z,1008.25
2017-05-15T14:32:37.635Z,1008.18
2017-05-15T14:33:47.691Z,1008.14
2017-05-15T14:34:58.148Z,1008.14
2017-05-15T14:36:08.520Z,1008.19
2017-05-15T14:37:18.890Z,1008.18
2017-05-15T14:38:28.933Z,1008.25
2017-05-15T14:39:38.988Z,1008.29
2017-05-15T14:40:49.454Z,1008.36
2017-05-15T14:41:59.815Z,1008.34
2017-05-15T14:43:09.541Z,1008.29
2017-05-15T14:44:19.887Z,1008.24